createdAt,value
2019-01-30T00:02:22.842Z,2.30
2019-01-30T00:04:52.147Z,2.40
2019-01-30T00:07:20.413Z,2.40
2019-01-30T00:09:48.384Z,2.50
2019-01-30T00:12:16.875Z,2.40
2019-01-30T00:14:46.255Z,2.40
2019-01-30T00:17:13.624Z,2.40
2019-01-30T00:19:41.244Z,2.40
2019-01-30T00:22:09.532Z,2.40
2019-01-30T00:24:37.540Z,2.30
2019-01-30T00:27:06.707Z,2.30
2019-01-30T00:29:36.323Z,2.30
2019-01-30T00:32:04.923Z,2.30
2019-01-30T00:34:32.596Z,2.30
2019-01-30T00:37:00.448Z,2.10
2019-01-30T00:39:28.819Z,2.10
2019-01-30T00:41:56.875Z,2.10
2019-01-30T00:44:25.548Z,2.10
2019-01-30T00:46:53.541Z,2.20
2019-01-30T00:49:22.067Z,2.20
2019-01-30T00:51:49.984Z,2.20
2019-01-30T00:54:17.636Z,2.20
2019-01-30T00:56:45.948Z,2.30
2019-01-30T00:59:13.946Z,2.30
2019-01-30T01:01:42.108Z,2.20
2019-01-30T01:04:10.152Z,2.20
2019-01-30T01:06:38.144Z,2.20
2019-01-30T01:09:09.355Z,2.10
2019-01-30T01:11:38.866Z,2.20
2019-01-30T01:14:06.763Z,2.20
2019-01-30T01:16:34.402Z,2.10
2019-01-30T01:21:31.487Z,2.10
2019-01-30T01:23:59.897Z,2.10
2019-01-30T01:26:27.983Z,2.00
2019-01-30T01:28:55.729Z,2.20
2019-01-30T01:31:25.311Z,1.90
2019-01-30T01:33:53.602Z,1.90
2019-01-30T01:36:22.056Z,2.00
2019-01-30T01:38:49.563Z,2.00
2019-01-30T01:41:17.978Z,2.00
2019-01-30T01:43:45.971Z,2.10
2019-01-30T01:46:15.662Z,2.00
2019-01-30T01:48:43.371Z,2.00
2019-01-30T01:51:11.531Z,2.00
2019-01-30T01:53:39.482Z,1.90
2019-01-30T01:56:07.119Z,1.90
2019-01-30T01:58:35.541Z,1.80
2019-01-30T02:01:05.346Z,1.90
2019-01-30T02:06:01.006Z,1.90
2019-01-30T02:08:29.261Z,1.90
2019-01-30T02:10:57.039Z,1.90
2019-01-30T02:13:24.687Z,1.90
2019-01-30T02:15:53.978Z,1.80
2019-01-30T02:18:23.393Z,1.90
2019-01-30T02:20:51.448Z,0.00
2019-01-30T02:23:20.043Z,1.90
2019-01-30T02:25:47.923Z,1.90
2019-01-30T02:28:15.790Z,1.80
2019-01-30T02:33:15.095Z,1.90
2019-01-30T02:35:42.661Z,1.80
2019-01-30T02:40:38.809Z,1.80
2019-01-30T02:43:07.035Z,1.90
2019-01-30T02:48:04.239Z,1.80
2019-01-30T02:50:34.964Z,1.80
2019-01-30T02:53:02.313Z,1.80
2019-01-30T02:55:31.081Z,1.90
2019-01-30T02:57:59.840Z,1.80
2019-01-30T03:00:28.901Z,1.80
2019-01-30T03:02:56.991Z,1.80
2019-01-30T03:05:25.662Z,1.80
2019-01-30T03:07:55.416Z,1.80
2019-01-30T03:10:23.495Z,1.80
2019-01-30T03:12:53.010Z,1.80
2019-01-30T03:15:20.987Z,1.80
2019-01-30T03:17:48.580Z,1.90
2019-01-30T03:20:19.022Z,1.90
2019-01-30T03:22:47.296Z,1.80
2019-01-30T03:25:15.530Z,1.90
2019-01-30T03:27:43.263Z,1.80
2019-01-30T03:30:13.838Z,1.80
2019-01-30T03:32:41.477Z,1.80
2019-01-30T03:35:09.695Z,1.80
2019-01-30T03:37:38.386Z,1.90
2019-01-30T03:40:09.074Z,1.90
2019-01-30T03:42:37.412Z,1.90
2019-01-30T03:45:06.052Z,1.90
2019-01-30T03:47:36.032Z,1.90
2019-01-30T03:50:06.423Z,1.90
2019-01-30T03:52:36.730Z,1.90
2019-01-30T03:55:05.354Z,1.90
2019-01-30T03:57:32.892Z,2.00
2019-01-30T04:00:00.529Z,1.90
2019-01-30T04:02:29.764Z,1.90
2019-01-30T04:04:59.271Z,1.90
2019-01-30T04:07:27.542Z,2.00
2019-01-30T04:09:56.027Z,2.00
2019-01-30T04:12:24.303Z,2.00
2019-01-30T04:14:53.500Z,1.90
2019-01-30T04:17:22.259Z,1.90
2019-01-30T04:19:50.677Z,1.90
2019-01-30T04:22:19.074Z,1.90
2019-01-30T04:24:47.365Z,1.80
2019-01-30T04:27:15.421Z,1.90
2019-01-30T04:29:43.654Z,1.90
2019-01-30T04:32:12.554Z,1.90
2019-01-30T04:34:40.679Z,1.90
2019-01-30T04:37:09.452Z,1.80
2019-01-30T04:39:37.595Z,2.00
2019-01-30T04:42:05.658Z,2.00
2019-01-30T04:44:34.194Z,2.00
2019-01-30T04:47:02.227Z,1.90
2019-01-30T04:51:59.503Z,1.90
2019-01-30T04:54:27.924Z,1.90
2019-01-30T04:56:55.582Z,1.90
2019-01-30T04:59:23.928Z,1.90
2019-01-30T05:01:53.006Z,1.90
2019-01-30T05:04:22.405Z,2.00
2019-01-30T05:06:50.916Z,2.00
2019-01-30T05:09:18.979Z,1.90
2019-01-30T05:11:46.945Z,2.00
2019-01-30T05:14:15.826Z,1.90
2019-01-30T05:16:43.819Z,1.90
2019-01-30T05:19:11.375Z,2.00
2019-01-30T05:26:34.922Z,1.90
2019-01-30T05:29:03.051Z,1.90
2019-01-30T05:36:29.096Z,2.00
2019-01-30T05:38:59.836Z,1.90
2019-01-30T05:43:56.586Z,1.90
2019-01-30T05:48:52.144Z,1.80
2019-01-30T05:53:49.479Z,1.90
2019-01-30T05:56:20.196Z,2.20
2019-01-30T05:58:48.195Z,1.70
2019-01-30T06:03:44.494Z,1.70
2019-01-30T06:06:13.191Z,2.10
2019-01-30T06:11:12.071Z,2.50
2019-01-30T06:13:39.933Z,1.90
2019-01-30T06:16:07.991Z,2.00
2019-01-30T06:21:03.972Z,1.80
2019-01-30T06:23:32.363Z,1.80
2019-01-30T06:26:01.073Z,1.90
2019-01-30T06:28:29.699Z,1.90
2019-01-30T06:30:59.096Z,1.90
2019-01-30T06:33:29.424Z,1.90
2019-01-30T06:35:57.347Z,2.10
2019-01-30T06:40:52.422Z,1.60
2019-01-30T06:45:47.838Z,1.90
2019-01-30T06:48:17.015Z,1.80
2019-01-30T06:50:45.516Z,1.50
2019-01-30T06:55:42.458Z,1.80
2019-01-30T06:58:10.483Z,1.50
2019-01-30T07:00:41.857Z,1.80
2019-01-30T07:03:09.968Z,1.60
2019-01-30T07:05:37.619Z,2.00
2019-01-30T07:08:05.624Z,1.70
2019-01-30T07:13:02.158Z,1.70
2019-01-30T07:15:30.218Z,1.70
2019-01-30T07:17:59.833Z,1.40
2019-01-30T07:20:31.204Z,1.50
2019-01-30T07:23:00.931Z,1.80
2019-01-30T07:25:29.336Z,1.60
2019-01-30T07:27:57.335Z,1.50
2019-01-30T07:32:55.309Z,1.50
2019-01-30T07:35:22.988Z,1.50
2019-01-30T07:37:51.279Z,1.30
2019-01-30T07:40:21.099Z,1.70
2019-01-30T07:45:18.193Z,1.40
2019-01-30T07:47:46.959Z,1.40
2019-01-30T07:52:43.499Z,1.30
2019-01-30T07:55:13.633Z,1.40
2019-01-30T07:57:42.114Z,1.40
2019-01-30T08:02:39.878Z,1.60
2019-01-30T08:05:08.240Z,1.80
2019-01-30T08:07:42.819Z,1.80
2019-01-30T08:12:40.020Z,1.60
2019-01-30T08:15:13.682Z,1.70
2019-01-30T08:17:43.448Z,1.60
2019-01-30T08:20:14.137Z,1.60
2019-01-30T08:22:42.292Z,1.50
2019-01-30T08:25:12.656Z,1.50
2019-01-30T08:27:41.402Z,1.40
2019-01-30T08:30:22.387Z,1.60
2019-01-30T08:32:44.421Z,1.70
2019-01-30T08:35:13.573Z,1.50
2019-01-30T08:40:10.465Z,1.80
2019-01-30T08:42:39.207Z,1.50
2019-01-30T08:45:09.371Z,1.60
2019-01-30T08:47:37.431Z,1.90
2019-01-30T08:50:06.232Z,1.60
2019-01-30T08:52:35.316Z,1.90
2019-01-30T08:55:04.282Z,1.90
2019-01-30T08:57:31.997Z,1.50
2019-01-30T09:00:00.314Z,1.50
2019-01-30T09:02:27.823Z,1.80
2019-01-30T09:09:52.325Z,1.90
2019-01-30T09:12:21.135Z,1.80
2019-01-30T09:14:49.110Z,1.80
2019-01-30T09:19:46.021Z,2.10
2019-01-30T09:22:14.884Z,2.60
2019-01-30T09:24:43.432Z,2.10
2019-01-30T09:27:11.937Z,2.00
2019-01-30T09:29:40.341Z,1.70
2019-01-30T09:32:09.391Z,2.00
2019-01-30T09:34:37.985Z,2.80
2019-01-30T09:37:09.629Z,2.10
2019-01-30T09:39:37.733Z,2.20
2019-01-30T09:44:34.034Z,2.30
2019-01-30T09:47:02.757Z,2.30
2019-01-30T09:49:32.714Z,2.10
2019-01-30T09:54:30.236Z,2.20
2019-01-30T09:59:26.412Z,1.90
2019-01-30T10:01:54.255Z,2.40
2019-01-30T10:04:22.931Z,2.10
2019-01-30T10:06:51.730Z,2.40
2019-01-30T10:09:20.522Z,2.20
2019-01-30T10:11:48.588Z,2.40
2019-01-30T10:14:16.710Z,2.00
2019-01-30T10:16:45.038Z,2.20
2019-01-30T10:19:13.334Z,2.60
2019-01-30T10:24:11.503Z,2.50
2019-01-30T10:26:40.212Z,2.50
2019-01-30T10:31:36.444Z,2.60
2019-01-30T10:34:06.367Z,2.30
2019-01-30T10:36:34.426Z,2.70
2019-01-30T10:39:04.487Z,2.80
2019-01-30T10:41:32.518Z,2.80
2019-01-30T10:48:56.123Z,2.80
2019-01-30T10:51:24.047Z,2.80
2019-01-30T10:56:19.524Z,2.70
2019-01-30T11:03:43.748Z,2.80
2019-01-30T11:11:08.454Z,3.20
2019-01-30T11:13:36.539Z,2.90
2019-01-30T11:16:04.087Z,2.30
2019-01-30T11:18:32.681Z,2.60
2019-01-30T11:21:00.877Z,2.60
2019-01-30T11:26:00.381Z,2.50
2019-01-30T11:28:29.228Z,2.80
2019-01-30T11:30:57.239Z,2.90
2019-01-30T11:35:54.015Z,2.70
2019-01-30T11:40:49.984Z,2.50
2019-01-30T11:43:19.205Z,3.20
2019-01-30T11:48:16.245Z,2.90
2019-01-30T11:50:46.475Z,2.70
2019-01-30T11:53:14.995Z,2.80
2019-01-30T11:55:45.891Z,2.70
2019-01-30T11:58:14.059Z,2.50
2019-01-30T12:01:03.608Z,2.70
2019-01-30T12:03:31.890Z,2.80
2019-01-30T12:06:01.285Z,2.70
2019-01-30T12:08:29.677Z,2.70
2019-01-30T12:13:29.182Z,3.40
2019-01-30T12:18:25.033Z,2.90
2019-01-30T12:20:52.666Z,2.70
2019-01-30T12:23:21.403Z,2.80
2019-01-30T12:25:52.439Z,2.90
2019-01-30T12:28:22.485Z,3.00
2019-01-30T12:33:19.904Z,2.70
2019-01-30T12:35:49.492Z,2.70
2019-01-30T12:38:19.539Z,2.70
2019-01-30T12:40:48.353Z,3.00
2019-01-30T12:43:16.703Z,3.00
2019-01-30T12:50:43.634Z,3.30
2019-01-30T12:53:14.338Z,2.90
2019-01-30T12:58:13.223Z,2.60
2019-01-30T13:00:41.566Z,3.20
2019-01-30T13:03:11.016Z,3.20
2019-01-30T13:05:40.117Z,2.70
2019-01-30T13:08:07.814Z,2.90
2019-01-30T13:10:36.140Z,2.90
2019-01-30T13:15:34.032Z,2.70
2019-01-30T13:18:01.867Z,3.30
2019-01-30T13:20:29.581Z,3.30
2019-01-30T13:23:01.359Z,3.20
2019-01-30T13:25:43.514Z,2.80
2019-01-30T13:28:12.119Z,3.00
2019-01-30T13:30:43.454Z,3.20
2019-01-30T13:33:11.978Z,2.90
2019-01-30T13:43:06.893Z,3.40
2019-01-30T13:45:36.579Z,3.10
2019-01-30T13:50:33.972Z,3.40
2019-01-30T13:53:03.565Z,3.30
2019-01-30T13:55:33.144Z,3.20
2019-01-30T14:00:36.038Z,3.60
2019-01-30T14:03:11.016Z,2.80
2019-01-30T14:05:41.261Z,2.90
2019-01-30T14:08:11.409Z,3.20
2019-01-30T14:13:11.852Z,2.80
2019-01-30T14:18:10.556Z,3.10
2019-01-30T14:20:39.649Z,3.30
2019-01-30T14:23:07.482Z,3.00
2019-01-30T14:25:37.280Z,3.60
2019-01-30T14:30:54.278Z,3.30
2019-01-30T14:33:25.454Z,3.00
2019-01-30T14:35:55.407Z,2.80
2019-01-30T14:38:25.801Z,2.80
2019-01-30T14:43:22.149Z,2.60
2019-01-30T14:45:50.703Z,3.30
2019-01-30T14:48:19.808Z,3.10
2019-01-30T14:50:51.046Z,2.10
2019-01-30T14:53:21.043Z,3.30
2019-01-30T14:58:21.852Z,3.10
2019-01-30T15:00:50.341Z,2.80
2019-01-30T15:03:18.853Z,2.60
2019-01-30T15:10:47.347Z,2.50
2019-01-30T15:13:15.523Z,3.00
2019-01-30T15:15:44.292Z,2.70
2019-01-30T15:18:13.253Z,3.00
2019-01-30T15:23:12.474Z,2.30
2019-01-30T15:25:41.011Z,2.30
2019-01-30T15:33:07.792Z,2.40
2019-01-30T15:38:06.721Z,2.30
2019-01-30T15:40:36.419Z,3.10
2019-01-30T15:48:02.613Z,2.40
2019-01-30T15:50:33.227Z,2.60
2019-01-30T15:58:03.297Z,2.20
2019-01-30T16:00:35.938Z,2.10
2019-01-30T16:10:37.912Z,2.00
2019-01-30T16:13:09.076Z,2.20
2019-01-30T16:20:39.057Z,2.40
2019-01-30T16:23:07.025Z,2.20
2019-01-30T16:30:31.886Z,2.60
2019-01-30T16:33:00.028Z,2.00
2019-01-30T16:35:29.855Z,2.60
2019-01-30T16:37:57.592Z,2.50
2019-01-30T16:40:25.991Z,2.00
2019-01-30T16:47:52.228Z,2.20
2019-01-30T16:50:20.915Z,2.30
2019-01-30T16:57:47.105Z,1.90
2019-01-30T17:00:29.487Z,2.10
2019-01-30T17:05:26.438Z,2.10
2019-01-30T17:12:52.681Z,2.20
2019-01-30T17:17:50.927Z,1.90
2019-01-30T17:20:25.149Z,2.50
2019-01-30T17:25:21.705Z,1.80
2019-01-30T17:27:49.461Z,1.90
2019-01-30T17:33:05.568Z,2.40
2019-01-30T17:35:35.954Z,1.70
2019-01-30T17:43:03.592Z,2.30
2019-01-30T17:45:33.656Z,2.30
2019-01-30T17:53:05.577Z,2.20
2019-01-30T17:55:34.770Z,2.00
2019-01-30T17:58:03.388Z,2.70
2019-01-30T18:03:25.708Z,2.40
2019-01-30T18:08:21.741Z,2.30
2019-01-30T18:13:21.570Z,2.10
2019-01-30T18:18:17.844Z,2.40
2019-01-30T18:20:46.582Z,1.80
2019-01-30T18:30:39.395Z,2.10
2019-01-30T18:33:07.544Z,2.00
2019-01-30T18:35:36.475Z,1.90
2019-01-30T18:38:05.463Z,1.70
2019-01-30T18:40:34.817Z,1.90
2019-01-30T18:43:03.086Z,1.80
2019-01-30T18:45:31.242Z,1.70
2019-01-30T18:50:29.474Z,2.20
2019-01-30T18:52:57.526Z,1.50
2019-01-30T18:58:05.455Z,1.80
2019-01-30T19:00:37.246Z,2.20
2019-01-30T19:05:35.134Z,2.80
2019-01-30T19:08:06.861Z,2.10
2019-01-30T19:10:34.320Z,2.40
2019-01-30T19:15:32.424Z,2.00
2019-01-30T19:23:03.282Z,2.20
2019-01-30T19:25:31.210Z,2.10
2019-01-30T19:30:29.956Z,2.10
2019-01-30T19:37:56.785Z,1.90
2019-01-30T19:40:26.261Z,1.80
2019-01-30T19:45:24.445Z,1.50
2019-01-30T19:47:52.645Z,1.90
2019-01-30T19:50:22.690Z,1.50
2019-01-30T19:55:20.299Z,2.00
2019-01-30T20:02:46.078Z,2.50
2019-01-30T20:10:13.996Z,1.80
2019-01-30T20:17:44.662Z,2.20
2019-01-30T20:22:41.088Z,2.30
2019-01-30T20:25:14.889Z,1.90
2019-01-30T20:30:17.417Z,2.00
2019-01-30T20:32:46.672Z,1.70
2019-01-30T20:37:43.145Z,2.10
2019-01-30T20:40:29.654Z,1.90
2019-01-30T20:43:03.384Z,2.00
2019-01-30T20:45:34.370Z,2.10
2019-01-30T20:50:34.880Z,2.40
2019-01-30T20:53:11.735Z,2.40
2019-01-30T21:03:09.928Z,2.20
2019-01-30T21:05:37.815Z,2.20
2019-01-30T21:08:07.927Z,2.30
2019-01-30T21:10:38.123Z,1.60
2019-01-30T21:18:05.873Z,1.90
2019-01-30T21:20:34.435Z,2.60
2019-01-30T21:30:31.329Z,2.20
2019-01-30T21:33:00.937Z,2.60
2019-01-30T21:37:57.246Z,2.30
2019-01-30T21:40:25.701Z,2.70
2019-01-30T21:47:52.454Z,2.30
2019-01-30T21:50:20.901Z,2.00
2019-01-30T21:55:20.635Z,2.20
2019-01-30T21:57:50.266Z,1.80
2019-01-30T22:00:20.216Z,2.00
2019-01-30T22:05:16.957Z,2.20
2019-01-30T22:07:46.551Z,2.30
2019-01-30T22:10:17.011Z,1.90
2019-01-30T22:15:13.870Z,2.70
2019-01-30T22:17:42.172Z,1.90
2019-01-30T22:25:19.895Z,2.10
2019-01-30T22:27:41.384Z,2.50
2019-01-30T22:30:14.860Z,2.50
2019-01-30T22:32:46.783Z,2.10
2019-01-30T22:35:14.748Z,1.40
2019-01-30T22:37:46.352Z,2.40
2019-01-30T22:42:46.847Z,3.20
2019-01-30T22:45:16.013Z,1.70
2019-01-30T22:52:46.050Z,2.60
2019-01-30T22:57:51.329Z,2.10
2019-01-30T23:00:52.765Z,1.70
2019-01-30T23:03:25.613Z,1.70
2019-01-30T23:09:01.908Z,1.50
2019-01-30T23:12:13.342Z,1.60
2019-01-30T23:14:52.488Z,2.00
2019-01-30T23:18:05.120Z,1.90
2019-01-30T23:20:49.577Z,1.80
2019-01-30T23:26:21.094Z,1.50
2019-01-30T23:29:42.833Z,1.10
2019-01-30T23:32:57.817Z,1.60
2019-01-30T23:35:55.679Z,1.50
2019-01-30T23:39:08.300Z,1.50
2019-01-30T23:42:05.959Z,1.50
2019-01-30T23:45:15.522Z,1.30
2019-01-30T23:48:21.482Z,1.40
2019-01-30T23:51:00.994Z,1.50
2019-01-30T23:54:12.300Z,1.40
2019-01-30T23:56:55.729Z,1.50
2019-01-30T23:59:50.134Z,1.50
